createdAt,value
2023-02-23T00:02:07.447Z,17.40
2023-02-23T00:04:36.395Z,18.20
2023-02-23T00:07:06.224Z,18.20
2023-02-23T00:09:36.239Z,17.48
2023-02-23T00:12:08.760Z,17.35
2023-02-23T00:14:38.777Z,18.08
2023-02-23T00:17:10.898Z,18.45
2023-02-23T00:19:39.132Z,19.30
2023-02-23T00:22:07.562Z,18.77
2023-02-23T00:24:37.815Z,18.05
2023-02-23T00:27:07.459Z,20.35
2023-02-23T00:29:40.145Z,19.80
2023-02-23T00:32:08.991Z,16.83
2023-02-23T00:34:37.937Z,16.33
2023-02-23T00:37:07.122Z,15.63
2023-02-23T00:39:35.330Z,17.23
2023-02-23T00:42:03.856Z,17.13
2023-02-23T00:44:33.964Z,17.75
2023-02-23T00:47:02.706Z,17.00
2023-02-23T00:49:30.994Z,18.00
2023-02-23T00:51:59.383Z,17.13
2023-02-23T00:54:28.149Z,18.15
2023-02-23T00:56:56.351Z,17.55
2023-02-23T00:59:24.611Z,17.35
2023-02-23T01:01:54.269Z,17.05
2023-02-23T01:04:23.082Z,17.00
2023-02-23T01:06:51.345Z,18.70
2023-02-23T01:09:28.439Z,17.77
2023-02-23T01:12:01.545Z,17.83
2023-02-23T01:14:31.309Z,16.67
2023-02-23T01:17:01.338Z,17.92
2023-02-23T01:19:29.680Z,17.08
2023-02-23T01:21:57.913Z,16.65
2023-02-23T01:24:26.118Z,17.38
2023-02-23T01:26:54.910Z,17.85
2023-02-23T01:29:23.187Z,17.63
2023-02-23T01:31:52.283Z,18.52
2023-02-23T01:34:22.731Z,18.23
2023-02-23T01:36:51.179Z,17.98
2023-02-23T01:39:21.702Z,16.77
2023-02-23T01:41:52.001Z,15.98
2023-02-23T01:44:58.491Z,16.02
2023-02-23T01:47:27.342Z,15.73
2023-02-23T01:49:57.019Z,17.52
2023-02-23T01:52:25.328Z,17.38
2023-02-23T01:54:56.844Z,17.98
2023-02-23T01:57:27.073Z,17.60
2023-02-23T01:59:56.113Z,17.25
2023-02-23T02:02:33.647Z,17.13
2023-02-23T02:05:12.935Z,16.67
2023-02-23T02:07:47.219Z,17.33
2023-02-23T02:10:33.168Z,16.75
2023-02-23T02:13:05.898Z,17.38
2023-02-23T02:15:38.747Z,16.80
2023-02-23T02:18:19.195Z,17.52
2023-02-23T02:21:26.110Z,16.85
2023-02-23T02:24:31.196Z,17.25
2023-02-23T02:27:13.140Z,17.63
2023-02-23T02:30:15.004Z,18.25
2023-02-23T02:33:16.872Z,16.67
2023-02-23T02:36:12.379Z,17.50
2023-02-23T02:38:54.016Z,17.75
2023-02-23T02:41:37.024Z,16.92
2023-02-23T02:44:15.616Z,17.48
2023-02-23T02:46:49.714Z,17.50
2023-02-23T02:49:27.747Z,16.75
2023-02-23T02:52:01.533Z,16.77
2023-02-23T02:54:35.257Z,17.45
2023-02-23T02:57:05.472Z,16.50
2023-02-23T03:00:01.275Z,17.20
2023-02-23T03:02:47.374Z,16.70
2023-02-23T03:05:33.883Z,15.95
2023-02-23T03:08:29.416Z,16.23
2023-02-23T03:11:22.906Z,16.48
2023-02-23T03:14:21.564Z,16.75
2023-02-23T03:17:15.366Z,16.42
2023-02-23T03:22:56.994Z,14.85
2023-02-23T03:25:50.802Z,14.90
2023-02-23T03:31:34.748Z,14.90
2023-02-23T03:34:28.444Z,15.02
2023-02-23T03:37:23.141Z,14.85
2023-02-23T03:40:15.564Z,15.30
2023-02-23T03:43:04.161Z,15.52
2023-02-23T03:45:51.699Z,15.50
2023-02-23T03:48:40.150Z,17.02
2023-02-23T03:51:28.708Z,16.88
2023-02-23T03:54:19.758Z,16.65
2023-02-23T03:57:09.806Z,16.95
2023-02-23T04:00:02.857Z,17.33
2023-02-23T04:02:53.437Z,16.85
2023-02-23T04:05:41.732Z,18.20
2023-02-23T04:08:32.504Z,17.70
2023-02-23T04:11:23.602Z,16.55
2023-02-23T04:13:54.578Z,18.13
2023-02-23T04:16:22.337Z,17.75
2023-02-23T04:18:52.063Z,18.08
2023-02-23T04:21:20.624Z,17.95
2023-02-23T04:23:49.185Z,17.73
2023-02-23T04:26:17.368Z,18.50
2023-02-23T04:28:45.597Z,17.63
2023-02-23T04:31:13.811Z,18.75
2023-02-23T04:33:42.009Z,18.73
2023-02-23T04:36:11.842Z,19.02
2023-02-23T04:38:40.285Z,17.98
2023-02-23T04:41:08.478Z,19.23
2023-02-23T04:43:36.779Z,19.88
2023-02-23T04:46:05.132Z,19.65
2023-02-23T04:48:33.352Z,19.10
2023-02-23T04:51:01.569Z,18.50
2023-02-23T04:53:31.187Z,18.65
2023-02-23T04:55:59.448Z,18.75
2023-02-23T04:58:28.056Z,19.02
2023-02-23T05:00:56.265Z,19.33
2023-02-23T05:03:24.480Z,19.27
2023-02-23T05:05:52.729Z,19.25
2023-02-23T05:08:20.967Z,18.95
2023-02-23T05:10:50.585Z,18.17
2023-02-23T05:13:18.806Z,18.55
2023-02-23T05:15:47.019Z,18.27
2023-02-23T05:18:15.246Z,19.85
2023-02-23T05:20:44.871Z,18.83
2023-02-23T05:23:13.212Z,18.58
2023-02-23T05:25:41.467Z,19.20
2023-02-23T05:28:11.074Z,19.15
2023-02-23T05:30:39.298Z,19.42
2023-02-23T05:33:07.536Z,20.38
2023-02-23T05:35:35.757Z,20.13
2023-02-23T05:38:03.978Z,20.48
2023-02-23T05:40:32.315Z,19.83
2023-02-23T05:43:01.131Z,20.00
2023-02-23T05:45:30.750Z,20.63
2023-02-23T05:47:59.208Z,19.17
2023-02-23T05:50:27.951Z,20.60
2023-02-23T05:52:56.205Z,19.23
2023-02-23T05:55:24.471Z,19.63
2023-02-23T05:57:52.745Z,18.73
2023-02-23T06:00:22.060Z,20.02
2023-02-23T06:02:53.158Z,20.30
2023-02-23T06:05:21.621Z,20.02
2023-02-23T06:07:49.804Z,19.08
2023-02-23T06:10:18.616Z,19.50
2023-02-23T06:12:46.834Z,19.65
2023-02-23T06:15:15.149Z,19.38
2023-02-23T06:17:43.451Z,19.50
2023-02-23T06:20:14.797Z,19.95
2023-02-23T06:22:43.428Z,19.25
2023-02-23T06:25:13.484Z,19.35
2023-02-23T06:27:42.293Z,20.38
2023-02-23T06:30:12.110Z,21.48
2023-02-23T06:32:40.417Z,20.45
2023-02-23T06:35:09.612Z,20.20
2023-02-23T06:37:39.256Z,20.02
2023-02-23T06:40:08.729Z,20.08
2023-02-23T06:42:36.931Z,21.38
2023-02-23T06:45:05.507Z,20.58
2023-02-23T06:47:33.723Z,20.58
2023-02-23T06:50:02.580Z,21.27
2023-02-23T06:52:30.973Z,20.75
2023-02-23T06:55:00.732Z,22.17
2023-02-23T06:57:29.177Z,21.60
2023-02-23T06:59:57.444Z,21.65
2023-02-23T07:02:25.726Z,22.23
2023-02-23T07:04:54.207Z,22.08
2023-02-23T07:07:22.644Z,22.13
2023-02-23T07:09:50.911Z,21.95
2023-02-23T07:12:21.121Z,22.65
2023-02-23T07:14:49.389Z,22.70
2023-02-23T07:17:17.920Z,23.27
2023-02-23T07:19:46.919Z,23.40
2023-02-23T07:22:15.181Z,22.92
2023-02-23T07:24:43.384Z,23.90
2023-02-23T07:27:11.639Z,23.45
2023-02-23T07:29:41.249Z,24.55
2023-02-23T07:32:09.638Z,24.42
2023-02-23T07:34:38.087Z,24.70
2023-02-23T07:37:06.301Z,26.60
2023-02-23T07:39:34.610Z,26.50
2023-02-23T07:42:02.854Z,25.63
2023-02-23T07:44:31.049Z,25.77
2023-02-23T07:47:00.722Z,26.20
2023-02-23T07:49:30.539Z,25.73
2023-02-23T07:51:58.783Z,26.15
2023-02-23T07:54:27.115Z,26.85
2023-02-23T07:56:55.353Z,26.35
2023-02-23T07:59:23.812Z,26.67
2023-02-23T08:01:52.452Z,26.63
2023-02-23T08:04:22.096Z,27.50
2023-02-23T08:06:50.336Z,27.25
2023-02-23T08:09:18.726Z,26.83
2023-02-23T08:11:46.903Z,27.20
2023-02-23T08:14:15.071Z,28.10
2023-02-23T08:16:43.474Z,25.85
2023-02-23T08:19:11.767Z,25.70
2023-02-23T08:21:43.390Z,27.67
2023-02-23T08:24:12.003Z,25.92
2023-02-23T08:26:40.239Z,27.65
2023-02-23T08:29:08.924Z,26.58
2023-02-23T08:31:37.646Z,26.95
2023-02-23T08:34:06.141Z,27.25
2023-02-23T08:36:34.423Z,27.70
2023-02-23T08:39:06.512Z,28.40
2023-02-23T08:41:34.911Z,27.20
2023-02-23T08:44:03.263Z,27.75
2023-02-23T08:46:31.655Z,27.55
2023-02-23T08:48:59.946Z,28.00
2023-02-23T08:51:28.311Z,26.98
2023-02-23T08:53:57.304Z,26.42
2023-02-23T08:56:27.121Z,26.23
2023-02-23T08:58:55.483Z,27.42
2023-02-23T09:01:23.789Z,27.02
2023-02-23T09:03:52.027Z,25.75
2023-02-23T09:06:22.631Z,25.77
2023-02-23T09:08:50.990Z,27.83
2023-02-23T09:11:21.745Z,27.38
2023-02-23T09:13:51.551Z,27.10
2023-02-23T09:16:19.905Z,28.08
2023-02-23T09:18:48.194Z,27.10
2023-02-23T09:21:21.289Z,27.38
2023-02-23T09:26:21.216Z,23.38
2023-02-23T09:28:51.324Z,26.27
2023-02-23T09:31:22.820Z,25.73
2023-02-23T09:33:51.829Z,26.73
2023-02-23T09:36:22.297Z,26.50
2023-02-23T09:38:55.202Z,26.67
2023-02-23T09:41:54.016Z,28.00
2023-02-23T09:44:40.690Z,26.48
2023-02-23T09:47:27.953Z,28.25
2023-02-23T09:49:59.669Z,29.98
2023-02-23T09:52:35.393Z,27.35
2023-02-23T09:55:04.066Z,28.73
2023-02-23T09:57:39.709Z,28.48
2023-02-23T10:00:18.687Z,27.92
2023-02-23T10:03:02.231Z,29.38
2023-02-23T10:08:07.413Z,23.38
2023-02-23T10:10:44.395Z,24.70
2023-02-23T10:13:22.620Z,33.78
2023-02-23T10:15:57.811Z,33.40
2023-02-23T10:18:46.113Z,29.52
2023-02-23T10:21:22.600Z,25.35
2023-02-23T10:23:56.144Z,22.27
2023-02-23T10:26:27.305Z,22.83
2023-02-23T10:28:58.666Z,22.90
2023-02-23T10:31:34.812Z,22.08
2023-02-23T10:34:07.322Z,23.08
2023-02-23T10:36:38.937Z,23.70
2023-02-23T10:39:09.860Z,21.83
2023-02-23T10:41:39.192Z,20.58
2023-02-23T10:44:17.390Z,21.70
2023-02-23T10:46:51.846Z,18.63
2023-02-23T10:49:24.582Z,19.60
2023-02-23T10:52:02.900Z,19.23
2023-02-23T10:54:47.765Z,18.70
2023-02-23T10:57:27.886Z,17.88
2023-02-23T11:00:08.497Z,20.67
2023-02-23T11:02:38.560Z,24.88
2023-02-23T11:05:08.227Z,16.58
2023-02-23T11:07:36.451Z,15.10
2023-02-23T11:10:26.162Z,12.52
2023-02-23T11:12:54.590Z,11.98
2023-02-23T11:15:46.415Z,10.82
2023-02-23T11:18:24.441Z,10.43
2023-02-23T11:20:53.598Z,9.80
2023-02-23T11:23:29.382Z,10.82
2023-02-23T11:26:01.253Z,9.60
2023-02-23T11:28:32.277Z,10.07
2023-02-23T11:31:05.188Z,8.73
2023-02-23T11:33:37.517Z,9.55
2023-02-23T11:36:18.652Z,9.63
2023-02-23T11:38:47.914Z,9.02
2023-02-23T11:41:25.185Z,9.85
2023-02-23T11:43:58.254Z,9.63
2023-02-23T11:46:28.416Z,9.70
2023-02-23T11:49:01.772Z,9.73
2023-02-23T11:54:01.314Z,8.95
2023-02-23T11:56:32.259Z,9.18
2023-02-23T11:59:03.798Z,8.82
2023-02-23T12:01:44.604Z,9.65
2023-02-23T12:04:29.219Z,9.65
2023-02-23T12:07:14.125Z,9.02
2023-02-23T12:09:43.614Z,8.20
2023-02-23T12:12:16.650Z,8.75
2023-02-23T12:14:51.353Z,9.23
2023-02-23T12:17:25.978Z,8.48
2023-02-23T12:20:01.293Z,8.50
2023-02-23T12:22:34.361Z,8.45
2023-02-23T12:25:06.006Z,8.95
2023-02-23T12:27:41.579Z,8.45
2023-02-23T12:30:17.732Z,8.93
2023-02-23T12:32:51.266Z,8.80
2023-02-23T12:35:30.192Z,12.00
2023-02-23T12:38:06.405Z,9.30
2023-02-23T12:40:38.543Z,11.80
2023-02-23T12:43:13.581Z,11.18
2023-02-23T12:45:47.166Z,10.82
2023-02-23T12:48:24.867Z,13.38
2023-02-23T12:50:57.323Z,13.15
2023-02-23T12:53:31.512Z,13.53
2023-02-23T12:56:15.814Z,15.10
2023-02-23T12:58:58.082Z,10.15
2023-02-23T13:01:29.505Z,10.70
2023-02-23T13:04:26.570Z,10.60
2023-02-23T13:07:05.271Z,9.38
2023-02-23T13:09:46.711Z,10.30
2023-02-23T13:12:27.365Z,9.50
2023-02-23T13:15:03.335Z,9.85
2023-02-23T13:17:41.030Z,9.20
2023-02-23T13:20:19.326Z,8.85
2023-02-23T13:22:53.205Z,9.23
2023-02-23T13:25:37.011Z,9.93
2023-02-23T13:28:07.973Z,9.77
2023-02-23T13:30:37.157Z,10.02
2023-02-23T13:33:14.561Z,10.52
2023-02-23T13:35:42.929Z,10.52
2023-02-23T13:38:21.586Z,11.32
2023-02-23T13:40:58.700Z,10.88
2023-02-23T13:43:33.765Z,10.38
2023-02-23T13:46:16.654Z,11.32
2023-02-23T13:48:58.829Z,10.38
2023-02-23T13:51:41.410Z,12.20
2023-02-23T13:54:25.310Z,12.32
2023-02-23T13:56:57.149Z,9.45
2023-02-23T13:59:29.411Z,10.00
2023-02-23T14:01:58.417Z,11.40
2023-02-23T14:04:28.652Z,10.70
2023-02-23T14:07:02.029Z,10.30
2023-02-23T14:12:16.704Z,10.10
2023-02-23T14:14:46.554Z,10.13
2023-02-23T14:17:56.219Z,12.43
2023-02-23T14:20:47.405Z,17.70
2023-02-23T14:23:18.723Z,15.07
2023-02-23T14:25:54.667Z,11.55
2023-02-23T14:28:27.612Z,13.13
2023-02-23T14:31:03.248Z,13.65
2023-02-23T14:33:49.932Z,13.90
2023-02-23T14:36:37.045Z,12.18
2023-02-23T14:39:10.486Z,14.95
2023-02-23T14:41:50.139Z,13.43
2023-02-23T14:44:29.445Z,13.93
2023-02-23T14:47:03.580Z,12.70
2023-02-23T14:49:36.921Z,12.32
2023-02-23T14:54:39.050Z,11.60
2023-02-23T14:57:18.826Z,11.30
2023-02-23T14:59:53.431Z,11.60
2023-02-23T15:02:24.213Z,13.20
2023-02-23T15:04:52.935Z,12.23
2023-02-23T15:07:27.982Z,12.95
2023-02-23T15:09:58.608Z,12.38
2023-02-23T15:12:30.877Z,12.95
2023-02-23T15:15:02.512Z,12.10
2023-02-23T15:17:33.870Z,15.73
2023-02-23T15:20:15.392Z,16.05
2023-02-23T15:22:48.370Z,13.07
2023-02-23T15:25:19.142Z,12.05
2023-02-23T15:27:49.312Z,12.27
2023-02-23T15:30:30.772Z,12.95
2023-02-23T15:33:04.601Z,13.65
2023-02-23T15:35:45.232Z,14.00
2023-02-23T15:38:41.783Z,14.63
2023-02-23T15:41:10.291Z,13.93
2023-02-23T15:43:39.912Z,14.57
2023-02-23T15:46:08.191Z,15.20
2023-02-23T15:48:45.950Z,15.32
2023-02-23T15:51:25.669Z,14.75
2023-02-23T15:53:54.473Z,18.10
2023-02-23T15:56:27.771Z,17.15
2023-02-23T16:01:29.082Z,14.45
2023-02-23T16:04:01.885Z,15.75
2023-02-23T16:06:35.150Z,15.50
2023-02-23T16:09:19.942Z,14.07
2023-02-23T16:11:51.854Z,15.20
2023-02-23T16:14:23.596Z,13.30
2023-02-23T16:17:10.067Z,14.00
2023-02-23T16:19:41.272Z,13.82
2023-02-23T16:22:19.604Z,14.15
2023-02-23T16:24:57.709Z,13.45
2023-02-23T16:27:27.146Z,12.57
2023-02-23T16:30:01.645Z,14.35
2023-02-23T16:32:39.664Z,12.38
2023-02-23T16:35:18.064Z,10.85
2023-02-23T16:37:59.571Z,10.73
2023-02-23T16:40:27.967Z,9.45
2023-02-23T16:42:59.370Z,8.95
2023-02-23T16:45:29.666Z,10.13
2023-02-23T16:48:02.524Z,10.20
2023-02-23T16:50:33.670Z,9.40
2023-02-23T16:53:02.171Z,9.05
2023-02-23T16:55:30.926Z,9.10
2023-02-23T16:58:01.622Z,9.50
2023-02-23T17:00:33.389Z,9.27
2023-02-23T17:03:02.195Z,10.48
2023-02-23T17:05:30.863Z,9.82
2023-02-23T17:07:59.350Z,9.93
2023-02-23T17:10:30.131Z,9.32
2023-02-23T17:13:00.488Z,10.43
2023-02-23T17:15:33.380Z,9.68
2023-02-23T17:18:01.605Z,10.35
2023-02-23T17:20:30.307Z,10.95
2023-02-23T17:23:00.188Z,12.30
2023-02-23T17:25:28.817Z,13.10
2023-02-23T17:27:58.056Z,13.77
2023-02-23T17:30:27.680Z,14.93
2023-02-23T17:32:59.367Z,13.30
2023-02-23T17:35:28.154Z,13.13
2023-02-23T17:37:56.491Z,14.82
2023-02-23T17:40:29.452Z,14.07
2023-02-23T17:42:59.120Z,12.98
2023-02-23T17:45:27.844Z,11.73
2023-02-23T17:47:57.997Z,12.55
2023-02-23T17:50:27.099Z,13.68
2023-02-23T17:52:55.484Z,12.98
2023-02-23T17:55:24.596Z,12.88
2023-02-23T17:57:52.775Z,12.95
2023-02-23T18:00:22.126Z,11.63
2023-02-23T18:02:50.353Z,12.05
2023-02-23T18:05:20.287Z,13.75
2023-02-23T18:07:48.950Z,12.50
2023-02-23T18:10:17.646Z,12.32
2023-02-23T18:12:46.063Z,13.50
2023-02-23T18:15:14.439Z,13.32
2023-02-23T18:17:42.702Z,13.45
2023-02-23T18:20:14.953Z,14.40
2023-02-23T18:22:45.268Z,14.70
2023-02-23T18:25:21.753Z,13.20
2023-02-23T18:27:54.492Z,12.80
2023-02-23T18:30:24.612Z,12.98
2023-02-23T18:32:56.391Z,13.40
2023-02-23T18:35:24.728Z,13.07
2023-02-23T18:37:54.354Z,14.48
2023-02-23T18:40:23.914Z,14.13
2023-02-23T18:42:52.486Z,15.50
2023-02-23T18:45:20.725Z,13.77
2023-02-23T18:47:48.980Z,13.63
2023-02-23T18:50:19.285Z,13.00
2023-02-23T18:52:48.916Z,13.77
2023-02-23T18:55:20.055Z,14.57
2023-02-23T18:57:48.271Z,14.40
2023-02-23T19:00:18.244Z,15.82
2023-02-23T19:02:47.500Z,16.00
2023-02-23T19:05:16.632Z,17.98
2023-02-23T19:07:45.218Z,19.13
2023-02-23T19:10:16.366Z,20.90
2023-02-23T19:12:46.041Z,21.65
2023-02-23T19:15:14.300Z,20.33
2023-02-23T19:17:42.543Z,19.65
2023-02-23T19:20:14.887Z,16.60
2023-02-23T19:22:43.579Z,16.20
2023-02-23T19:25:14.540Z,17.08
2023-02-23T19:27:43.662Z,18.80
2023-02-23T19:30:14.694Z,23.60
2023-02-23T19:32:44.076Z,21.63
2023-02-23T19:35:15.730Z,24.02
2023-02-23T19:37:49.090Z,23.63
2023-02-23T19:42:49.467Z,16.83
2023-02-23T19:45:19.702Z,18.60
2023-02-23T19:47:47.943Z,18.83
2023-02-23T19:50:19.048Z,21.52
2023-02-23T19:52:48.544Z,21.63
2023-02-23T19:55:17.007Z,25.73
2023-02-23T19:57:45.227Z,25.30
2023-02-23T20:00:14.683Z,25.60
2023-02-23T20:02:44.466Z,25.58
2023-02-23T20:05:13.613Z,23.65
2023-02-23T20:07:41.999Z,22.55
2023-02-23T20:10:14.047Z,22.00
2023-02-23T20:12:42.329Z,22.77
2023-02-23T20:15:11.502Z,22.85
2023-02-23T20:17:40.123Z,21.58
2023-02-23T20:20:12.246Z,22.30
2023-02-23T20:22:42.254Z,22.02
2023-02-23T20:25:16.493Z,21.95
2023-02-23T20:27:45.397Z,22.95
2023-02-23T20:30:14.542Z,22.90
2023-02-23T20:32:42.874Z,23.27
2023-02-23T20:35:14.282Z,22.77
2023-02-23T20:37:43.164Z,23.23
2023-02-23T20:40:18.736Z,23.83
2023-02-23T20:42:48.845Z,21.60
2023-02-23T20:45:20.673Z,21.77
2023-02-23T20:47:52.974Z,22.20
2023-02-23T20:50:25.498Z,21.85
2023-02-23T20:52:53.716Z,22.53
2023-02-23T20:55:27.216Z,22.20
2023-02-23T20:57:57.072Z,22.52
2023-02-23T21:00:28.219Z,22.17
2023-02-23T21:02:56.467Z,22.02
2023-02-23T21:05:29.215Z,21.67
2023-02-23T21:08:01.204Z,20.90
2023-02-23T21:10:32.297Z,19.83
2023-02-23T21:13:01.326Z,18.33
2023-02-23T21:15:30.638Z,18.10
2023-02-23T21:18:00.167Z,17.85
2023-02-23T21:20:29.967Z,17.92
2023-02-23T21:22:58.265Z,18.48
2023-02-23T21:25:27.901Z,19.08
2023-02-23T21:27:56.149Z,17.45
2023-02-23T21:30:28.722Z,18.95
2023-02-23T21:32:59.504Z,17.00
2023-02-23T21:35:29.606Z,16.88
2023-02-23T21:37:57.996Z,16.75
2023-02-23T21:40:26.236Z,16.10
2023-02-23T21:42:54.595Z,15.25
2023-02-23T21:45:22.798Z,16.08
2023-02-23T21:47:51.232Z,16.25
2023-02-23T21:50:20.599Z,15.88
2023-02-23T21:52:51.165Z,15.57
2023-02-23T21:55:22.814Z,15.73
2023-02-23T21:57:52.049Z,15.38
2023-02-23T22:00:21.793Z,19.08
2023-02-23T22:02:50.490Z,24.95
2023-02-23T22:05:20.823Z,24.50
2023-02-23T22:07:54.531Z,25.83
2023-02-23T22:10:24.520Z,22.85
2023-02-23T22:12:56.081Z,20.33
2023-02-23T22:15:27.521Z,20.88
2023-02-23T22:17:56.025Z,19.05
2023-02-23T22:20:25.585Z,17.75
2023-02-23T22:22:55.165Z,24.63
2023-02-23T22:25:23.455Z,22.73
2023-02-23T22:27:51.671Z,21.38
2023-02-23T22:30:22.638Z,19.00
2023-02-23T22:32:51.117Z,17.13
2023-02-23T22:35:19.646Z,14.30
2023-02-23T22:37:48.060Z,16.52
2023-02-23T22:40:17.960Z,17.52
2023-02-23T22:42:49.062Z,23.45
2023-02-23T22:45:17.971Z,19.02
2023-02-23T22:47:46.271Z,19.50
2023-02-23T22:50:18.060Z,19.90
2023-02-23T22:52:47.422Z,18.88
2023-02-23T22:55:18.293Z,15.82
2023-02-23T22:57:47.748Z,13.90
2023-02-23T23:00:19.415Z,13.98
2023-02-23T23:02:48.360Z,13.90
2023-02-23T23:05:16.974Z,14.77
2023-02-23T23:07:46.798Z,14.10
2023-02-23T23:10:15.449Z,15.25
2023-02-23T23:12:45.915Z,13.55
2023-02-23T23:15:17.517Z,14.57
2023-02-23T23:17:48.495Z,13.43
2023-02-23T23:20:18.896Z,14.07
2023-02-23T23:22:47.083Z,13.95
2023-02-23T23:25:15.850Z,13.48
2023-02-23T23:27:46.015Z,12.30
2023-02-23T23:30:16.953Z,12.50
2023-02-23T23:32:45.713Z,13.05
2023-02-23T23:35:15.218Z,11.27
2023-02-23T23:37:43.397Z,11.07
2023-02-23T23:40:15.203Z,11.30
2023-02-23T23:42:48.791Z,11.13
2023-02-23T23:45:18.734Z,12.10
2023-02-23T23:47:47.711Z,11.02
2023-02-23T23:50:17.935Z,11.23
2023-02-23T23:52:46.932Z,11.57
2023-02-23T23:55:16.151Z,10.98
2023-02-23T23:57:45.740Z,10.73
